Time;durP1;ratioP1;P1;durP2;ratioP2;P2;SDS_P1;SDS_P2;PMS_P1;PMS_P2;Temp;Humidity;BMP_temperature;BMP_pressure;BME280_temperature;BME280_humidity;BME280_pressure;Samples;Min_cycle;Max_cycle;Signal;HPM_P1;HPM_P2
2022/01/13 00:01:54;;;;;;;137.23;34.65;;;5.50;99.90;;;;;;4860503;29;20060;-89
2022/01/13 00:04:20;;;;;;;137.93;36.33;;;5.50;99.90;;;;;;4861392;29;20041;-93
2022/01/13 00:06:50;;;;;;;142.40;34.85;;;5.80;99.90;;;;;;4860859;29;20053;-91
2022/01/13 00:09:16;;;;;;;155.32;34.97;;;6.60;99.90;;;;;;4861429;29;20079;-90
2022/01/13 00:11:43;;;;;;;145.75;34.03;;;5.90;99.90;;;;;;4861481;29;20143;-90
2022/01/13 00:17:05;;;;;;;148.45;31.63;;;5.90;99.90;;;;;;4861555;29;20057;-90
2022/01/13 00:22:14;;;;;;;179.75;35.60;;;6.30;99.90;;;;;;4861028;29;20392;-91
2022/01/13 00:24:42;;;;;;;184.07;35.85;;;5.20;99.90;;;;;;4860902;29;20084;-90
2022/01/13 00:27:11;;;;;;;146.10;32.03;;;5.40;99.90;;;;;;4860105;29;20053;-91
2022/01/13 00:29:43;;;;;;;177.88;33.58;;;6.10;99.90;;;;;;4861214;29;20064;-90
2022/01/13 00:32:12;;;;;;;210.57;35.95;;;4.60;99.90;;;;;;4860384;29;20052;-90
2022/01/13 00:34:38;;;;;;;179.38;33.90;;;5.40;99.90;;;;;;4860084;29;20049;-91
2022/01/13 00:37:04;;;;;;;200.77;32.72;;;5.10;99.90;;;;;;4860834;29;20053;-91
2022/01/13 00:39:30;;;;;;;186.10;30.63;;;5.30;99.90;;;;;;4860981;29;20060;-89
2022/01/13 00:41:56;;;;;;;187.20;32.20;;;5.00;99.90;;;;;;4859272;29;20064;-89
2022/01/13 00:44:21;;;;;;;198.07;32.78;;;6.10;99.90;;;;;;4859341;29;20067;-89
2022/01/13 00:46:55;;;;;;;232.38;34.90;;;5.20;99.90;;;;;;4859694;29;20053;-89
2022/01/13 00:49:21;;;;;;;207.80;35.03;;;6.20;99.90;;;;;;4858744;29;20068;-90
2022/01/13 00:51:47;;;;;;;192.40;31.15;;;6.10;99.90;;;;;;4859711;29;20048;-89
2022/01/13 00:54:13;;;;;;;207.40;33.47;;;5.90;99.90;;;;;;4858270;29;20053;-90
2022/01/13 00:56:40;;;;;;;192.35;33.63;;;5.30;99.90;;;;;;4860020;29;20045;-90
2022/01/13 00:59:09;;;;;;;205.95;33.80;;;5.20;99.90;;;;;;4860055;29;20045;-90
2022/01/13 01:01:39;;;;;;;232.80;34.53;;;6.40;99.90;;;;;;4858978;29;20785;-89
2022/01/13 01:04:05;;;;;;;249.05;35.03;;;5.20;99.90;;;;;;4859528;29;20045;-89
2022/01/13 01:06:32;;;;;;;250.07;33.38;;;5.10;99.90;;;;;;4859374;29;20063;-90
2022/01/13 01:08:58;;;;;;;194.02;29.77;;;5.30;99.90;;;;;;4859180;29;20088;-89
2022/01/13 01:11:26;;;;;;;270.65;33.83;;;5.90;99.90;;;;;;4875110;29;20093;-90
2022/01/13 01:13:52;;;;;;;283.35;35.20;;;5.60;99.90;;;;;;4859895;29;20045;-90
2022/01/13 01:16:18;;;;;;;214.05;30.98;;;5.10;99.90;;;;;;4859008;29;20204;-91
2022/01/13 01:28:57;;;;;;;177.52;30.08;;;5.00;99.90;;;;;;4860104;29;20373;-91
2022/01/13 01:31:28;;;;;;;198.88;33.30;;;5.00;99.90;;;;;;4874486;29;20126;-91
2022/01/13 01:36:25;;;;;;;166.77;29.85;;;5.90;99.90;;;;;;4859701;29;20063;-91
2022/01/13 01:38:53;;;;;;;217.48;34.28;;;5.00;99.90;;;;;;4844435;29;20135;-92
2022/01/13 01:41:19;;;;;;;175.50;30.27;;;5.10;99.90;;;;;;4845138;29;20049;-92
2022/01/13 01:43:46;;;;;;;157.98;29.05;;;5.10;99.90;;;;;;4859131;29;20113;-91
2022/01/13 01:46:11;;;;;;;216.32;33.67;;;5.10;99.90;;;;;;4859999;29;20092;-91
2022/01/13 01:48:37;;;;;;;250.18;35.05;;;5.10;99.90;;;;;;4875318;29;20056;-91
2022/01/13 01:51:04;;;;;;;231.27;35.03;;;5.70;99.90;;;;;;4858916;29;20458;-91
2022/01/13 01:53:34;;;;;;;272.95;38.60;;;6.00;99.90;;;;;;4859989;29;20049;-91
2022/01/13 01:56:00;;;;;;;213.57;35.10;;;5.50;99.90;;;;;;4860313;29;20115;-91
2022/01/13 01:58:29;;;;;;;237.90;37.67;;;5.80;99.90;;;;;;4859457;29;20072;-93
2022/01/13 02:00:55;;;;;;;224.73;37.47;;;5.30;99.90;;;;;;4858983;29;20045;-91
2022/01/13 02:03:23;;;;;;;248.98;39.83;;;5.10;99.90;;;;;;4859880;29;20122;-91
2022/01/13 02:05:52;;;;;;;206.80;37.20;;;5.80;99.90;;;;;;4857619;29;20065;-89
2022/01/13 02:08:30;;;;;;;194.18;36.83;;;5.60;99.90;;;;;;4844463;29;20139;-92
2022/01/13 02:10:55;;;;;;;188.63;35.10;;;5.10;99.90;;;;;;4859661;29;20049;-90
2022/01/13 02:13:24;;;;;;;198.18;35.33;;;5.10;99.90;;;;;;4843448;29;20045;-91
2022/01/13 02:16:25;;;;;;;214.88;37.42;;;4.90;99.90;;;;;;4859466;29;20049;-91
2022/01/13 02:18:51;;;;;;;220.70;37.97;;;5.80;99.90;;;;;;4858117;29;20136;-91
2022/01/13 02:21:42;;;;;;;195.20;36.28;;;5.10;99.90;;;;;;4859411;29;20213;-91
2022/01/13 02:24:08;;;;;;;221.25;37.72;;;5.10;99.90;;;;;;4860128;29;20052;-90
2022/01/13 02:26:33;;;;;;;191.23;35.45;;;5.00;99.90;;;;;;4874811;29;20072;-92
2022/01/13 02:29:08;;;;;;;217.15;38.42;;;6.10;99.90;;;;;;4844919;29;20049;-92
2022/01/13 02:31:34;;;;;;;185.48;34.63;;;4.90;99.90;;;;;;4860351;29;20771;-92
2022/01/13 02:34:00;;;;;;;201.32;36.85;;;5.00;99.90;;;;;;4859259;29;20049;-91
2022/01/13 02:36:27;;;;;;;195.25;34.83;;;4.90;99.90;;;;;;4859512;29;20052;-90
2022/01/13 02:38:55;;;;;;;176.88;35.00;;;6.00;99.90;;;;;;4844555;29;20057;-91
2022/01/13 02:41:31;;;;;;;178.13;35.10;;;5.10;99.90;;;;;;4859070;29;20132;-91
2022/01/13 02:44:01;;;;;;;171.38;33.20;;;4.30;99.90;;;;;;4859507;29;20053;-91
2022/01/13 02:49:05;;;;;;;173.68;35.25;;;4.90;99.90;;;;;;4858563;29;20576;-89
2022/01/13 02:51:32;;;;;;;168.30;33.05;;;5.70;99.90;;;;;;4859210;29;20048;-89
2022/01/13 02:53:58;;;;;;;187.20;37.53;;;4.90;99.90;;;;;;4858524;29;20055;-90
2022/01/13 02:56:23;;;;;;;177.85;35.92;;;6.20;99.90;;;;;;4859428;29;20096;-90
2022/01/13 02:58:56;;;;;;;196.57;34.47;;;5.10;99.90;;;;;;4859180;29;20053;-90
2022/01/13 03:01:25;;;;;;;162.20;33.05;;;5.20;99.90;;;;;;4874441;29;20056;-90
2022/01/13 03:03:51;;;;;;;171.00;33.90;;;5.90;99.90;;;;;;4858751;29;20059;-90
2022/01/13 03:06:24;;;;;;;159.82;33.95;;;5.10;99.90;;;;;;4859422;29;20041;-90
2022/01/13 03:08:50;;;;;;;;;;;5.00;99.90;;;;;;4858974;29;20052;-90
2022/01/13 03:11:16;;;;;;;146.00;32.35;;;5.90;99.90;;;;;;4859894;29;19919;-91
2022/01/13 03:13:42;;;;;;;169.95;33.85;;;6.20;99.90;;;;;;4859172;29;20609;-91
2022/01/13 03:16:18;;;;;;;161.18;33.35;;;5.00;99.90;;;;;;4858777;29;20051;-90
2022/01/13 03:18:47;;;;;;;168.60;33.05;;;5.20;99.90;;;;;;4861608;29;20136;-94
2022/01/13 03:21:13;;;;;;;185.60;36.08;;;5.00;99.90;;;;;;4866084;29;20132;-89
2022/01/13 03:23:38;;;;;;;149.27;32.28;;;6.00;99.90;;;;;;4880560;29;20112;-89
2022/01/13 03:26:05;;;;;;;180.05;34.13;;;5.10;99.90;;;;;;4865286;29;20473;-87
2022/01/13 03:28:38;;;;;;;177.93;33.38;;;6.00;99.90;;;;;;4865543;29;20040;-88
2022/01/13 03:31:16;;;;;;;184.73;34.28;;;5.00;99.90;;;;;;4865512;29;20044;-88
2022/01/13 03:33:42;;;;;;;184.38;33.03;;;5.20;99.90;;;;;;4865126;29;20044;-89
2022/01/13 03:36:08;;;;;;;199.70;36.60;;;4.90;99.90;;;;;;4864661;29;20077;-88
2022/01/13 03:38:51;;;;;;;234.95;35.55;;;5.30;99.90;;;;;;4865185;29;20108;-89
2022/01/13 03:41:19;;;;;;;189.95;34.25;;;5.00;99.90;;;;;;4864470;29;20119;-88
2022/01/13 03:43:45;;;;;;;223.95;36.33;;;5.40;99.90;;;;;;4864678;29;20131;-88
2022/01/13 03:46:25;;;;;;;215.35;36.05;;;5.20;99.90;;;;;;4864848;29;20489;-88
2022/01/13 03:48:51;;;;;;;265.65;38.30;;;4.90;99.90;;;;;;4863857;29;20045;-88
2022/01/13 03:51:19;;;;;;;268.95;37.33;;;4.90;99.90;;;;;;4879485;29;20059;-88
2022/01/13 03:54:03;;;;;;;239.88;35.47;;;5.00;99.90;;;;;;4864344;29;20112;-89
2022/01/13 03:56:42;;;;;;;214.02;35.60;;;5.20;99.90;;;;;;4864772;29;20052;-88
2022/01/13 03:59:34;;;;;;;206.52;35.88;;;5.90;99.90;;;;;;4861002;29;20060;-88
2022/01/13 04:02:16;;;;;;;203.03;34.53;;;5.10;99.90;;;;;;4845577;29;20395;-89
2022/01/13 04:04:46;;;;;;;192.90;32.33;;;5.00;99.90;;;;;;4845564;29;20040;-89
2022/01/13 04:07:20;;;;;;;218.60;34.17;;;5.90;99.90;;;;;;4846875;29;20201;-89
2022/01/13 04:10:30;;;;;;;196.25;34.47;;;5.00;99.90;;;;;;4846270;29;20486;-90
2022/01/13 04:12:57;;;;;;;207.02;34.25;;;5.00;99.90;;;;;;4845572;29;20112;-89
2022/01/13 04:15:25;;;;;;;209.73;34.75;;;5.10;99.90;;;;;;4845543;29;20056;-89
2022/01/13 04:18:09;;;;;;;255.07;36.10;;;4.90;99.90;;;;;;4846715;29;20037;-90
2022/01/13 04:20:35;;;;;;;278.90;37.85;;;5.00;99.90;;;;;;4845236;29;20060;-89
2022/01/13 04:23:03;;;;;;;277.60;37.13;;;5.70;99.90;;;;;;4846253;29;20116;-90
2022/01/13 04:25:31;;;;;;;218.00;35.53;;;5.60;99.90;;;;;;4845838;29;20053;-90
2022/01/13 04:28:02;;;;;;;229.43;36.45;;;6.00;99.90;;;;;;4846373;29;20087;-89
2022/01/13 04:33:07;;;;;;;256.83;36.13;;;5.60;99.90;;;;;;4860408;29;20053;-88
2022/01/13 04:35:42;;;;;;;294.25;38.80;;;4.70;99.90;;;;;;4845338;29;20105;-89
2022/01/13 04:38:07;;;;;;;276.10;37.05;;;5.60;99.90;;;;;;4846273;29;20056;-89
2022/01/13 04:40:35;;;;;;;302.75;39.10;;;6.00;99.90;;;;;;4845156;29;20481;-89
2022/01/13 04:43:01;;;;;;;318.52;39.83;;;5.00;99.90;;;;;;4845405;29;20049;-89
2022/01/13 04:45:39;;;;;;;295.50;38.40;;;6.00;99.90;;;;;;4845065;29;20349;-89
2022/01/13 04:48:06;;;;;;;292.25;38.45;;;4.90;99.90;;;;;;4845170;29;20080;-89
2022/01/13 04:50:38;;;;;;;315.38;37.97;;;5.20;99.90;;;;;;4844497;29;20048;-88
2022/01/13 04:53:04;;;;;;;334.92;42.65;;;5.00;99.90;;;;;;4845396;29;20084;-88
2022/01/13 04:55:32;;;;;;;297.77;39.83;;;5.70;99.90;;;;;;4844575;29;20087;-89
2022/01/13 04:58:01;;;;;;;273.73;37.40;;;5.00;99.90;;;;;;4845614;29;20052;-89
2022/01/13 05:00:38;;;;;;;282.30;39.50;;;6.10;99.90;;;;;;4843920;29;20076;-89
2022/01/13 05:03:04;;;;;;;290.90;39.58;;;5.00;99.90;;;;;;4845663;29;20049;-88
2022/01/13 05:05:29;;;;;;;244.80;34.47;;;5.20;99.90;;;;;;4844164;29;20056;-88
2022/01/13 05:07:55;;;;;;;288.55;39.65;;;5.00;99.90;;;;;;4844605;29;20059;-89
2022/01/13 05:10:38;;;;;;;284.65;39.72;;;5.00;99.90;;;;;;4844789;29;20049;-88
2022/01/13 05:13:08;;;;;;;230.20;34.92;;;4.60;99.90;;;;;;4844265;29;20096;-88
2022/01/13 05:15:36;;;;;;;320.30;39.28;;;5.90;99.90;;;;;;4844067;29;20045;-88
2022/01/13 05:18:29;;;;;;;274.52;38.53;;;4.60;99.90;;;;;;4846285;29;20176;-89
2022/01/13 05:21:44;;;;;;;281.38;37.05;;;6.10;99.90;;;;;;4856121;29;20061;-89
2022/01/13 05:24:10;;;;;;;248.10;36.05;;;5.10;99.90;;;;;;4860348;29;20060;-89
2022/01/13 05:26:36;;;;;;;326.63;41.55;;;5.70;99.90;;;;;;4859561;29;20052;-88
2022/01/13 05:29:12;;;;;;;331.17;40.53;;;5.00;99.90;;;;;;4858938;29;20082;-89
2022/01/13 05:31:38;;;;;;;305.60;39.15;;;5.80;99.90;;;;;;4858923;29;20109;-89
2022/01/13 05:34:03;;;;;;;324.27;38.47;;;5.00;99.90;;;;;;4858997;29;20057;-88
2022/01/13 05:36:29;;;;;;;310.60;38.55;;;4.30;99.90;;;;;;4858711;29;20508;-88
2022/01/13 05:38:55;;;;;;;374.02;40.50;;;5.00;99.90;;;;;;4858501;29;20512;-88
2022/01/13 05:41:31;;;;;;;381.30;44.50;;;6.40;99.90;;;;;;4859089;29;20041;-88
2022/01/13 05:43:57;;;;;;;357.70;40.33;;;5.00;99.90;;;;;;4858772;29;20120;-87
2022/01/13 05:46:23;;;;;;;387.13;42.30;;;5.10;99.90;;;;;;4857963;29;20056;-88
2022/01/13 05:48:56;;;;;;;412.13;44.03;;;6.30;99.90;;;;;;4858485;29;20056;-88
2022/01/13 05:51:22;;;;;;;330.23;37.72;;;4.80;99.90;;;;;;4850506;29;20189;-88
2022/01/13 05:53:48;;;;;;;391.48;40.70;;;5.70;99.90;;;;;;4843875;29;20104;-88
2022/01/13 05:56:24;;;;;;;396.08;40.65;;;4.50;99.90;;;;;;4844336;29;20059;-89
2022/01/13 05:58:50;;;;;;;368.08;40.72;;;5.10;99.90;;;;;;4853098;29;20052;-89
2022/01/13 06:01:17;;;;;;;341.63;38.45;;;5.60;99.90;;;;;;4852614;29;20041;-89
2022/01/13 06:03:43;;;;;;;362.40;40.70;;;5.10;99.90;;;;;;4851290;29;20424;-88
2022/01/13 06:06:11;;;;;;;367.05;39.50;;;4.30;99.90;;;;;;4862552;29;20048;-88
2022/01/13 06:08:37;;;;;;;360.00;38.85;;;6.20;99.90;;;;;;4859449;29;20051;-88
2022/01/13 06:11:03;;;;;;;333.65;38.00;;;5.10;99.90;;;;;;4852500;29;20044;-87
2022/01/13 06:13:28;;;;;;;341.75;41.05;;;5.80;99.90;;;;;;4866776;29;20053;-87
2022/01/13 06:15:54;;;;;;;420.58;42.75;;;4.60;99.90;;;;;;4852701;29;20452;-88
2022/01/13 06:18:24;;;;;;;352.63;41.58;;;5.20;99.90;;;;;;4851485;29;20100;-88
2022/01/13 06:20:53;;;;;;;;;;;6.00;99.90;;;;;;4851307;29;20499;-88
2022/01/13 06:23:21;;;;;;;425.60;45.10;;;5.20;99.90;;;;;;4855723;29;20022;-89
2022/01/13 06:25:47;;;;;;;335.38;40.15;;;5.40;99.90;;;;;;4861589;29;20044;-89
2022/01/13 06:28:12;;;;;;;336.00;43.00;;;5.10;99.90;;;;;;4862335;29;20584;-91
2022/01/13 06:30:38;;;;;;;275.85;39.60;;;6.20;99.90;;;;;;4858852;29;20044;-91
2022/01/13 06:33:04;;;;;;;239.10;38.60;;;5.90;99.90;;;;;;4845302;29;20044;-89
2022/01/13 06:35:30;;;;;;;234.32;38.15;;;5.80;99.90;;;;;;4860158;29;20048;-89
2022/01/13 06:37:56;;;;;;;292.65;40.08;;;5.40;99.90;;;;;;4855900;29;20128;-89
2022/01/13 06:40:27;;;;;;;254.35;40.58;;;6.40;99.90;;;;;;4846988;29;20117;-92
2022/01/13 06:42:53;;;;;;;285.95;42.50;;;5.40;99.90;;;;;;4841992;29;20084;-92
2022/01/13 06:45:19;;;;;;;236.88;40.70;;;6.10;99.90;;;;;;4848263;29;20087;-93
2022/01/13 06:47:47;;;;;;;277.40;40.45;;;6.20;99.90;;;;;;4850503;29;20053;-91
2022/01/13 06:50:13;;;;;;;277.08;42.13;;;6.10;99.90;;;;;;4849844;29;20101;-93
2022/01/13 06:52:39;;;;;;;248.43;41.92;;;5.60;99.90;;;;;;4850744;29;20580;-90
2022/01/13 06:55:08;;;;;;;298.83;42.70;;;5.80;99.90;;;;;;4849830;29;20096;-90
2022/01/13 06:57:34;;;;;;;233.82;39.70;;;5.50;99.90;;;;;;4851130;29;20437;-90
2022/01/13 07:00:00;;;;;;;242.75;42.30;;;5.60;99.90;;;;;;4849528;29;20105;-91
2022/01/13 07:02:30;;;;;;;261.58;41.65;;;5.60;99.90;;;;;;4849530;29;20156;-90
2022/01/13 07:04:59;;;;;;;283.13;42.75;;;5.50;99.90;;;;;;4850473;29;20424;-90
2022/01/13 07:07:28;;;;;;;209.15;40.28;;;5.60;99.90;;;;;;4850957;29;20527;-92
2022/01/13 07:09:55;;;;;;;251.07;41.25;;;5.20;99.90;;;;;;4852019;29;20219;-91
2022/01/13 07:12:20;;;;;;;255.10;42.35;;;6.10;99.90;;;;;;4849823;29;20061;-90
2022/01/13 07:14:49;;;;;;;240.55;41.53;;;6.00;99.90;;;;;;4849078;29;20052;-94
2022/01/13 07:17:15;;;;;;;295.63;43.97;;;5.70;99.90;;;;;;4852006;29;20167;-91
2022/01/13 07:19:41;;;;;;;213.15;40.97;;;5.90;99.90;;;;;;4850775;29;20052;-93
2022/01/13 07:22:10;;;;;;;244.30;41.00;;;6.70;99.90;;;;;;4848797;29;20124;-92
2022/01/13 07:24:36;;;;;;;274.23;43.53;;;5.70;99.90;;;;;;4848631;29;20048;-93
2022/01/13 07:27:01;;;;;;;224.23;39.80;;;5.70;99.90;;;;;;4854165;29;20075;-96
2022/01/13 07:29:27;;;;;;;231.77;40.58;;;5.70;99.90;;;;;;4851828;29;20071;-93
2022/01/13 07:31:56;;;;;;;260.85;44.00;;;4.90;99.90;;;;;;4855520;29;20195;-93
2022/01/13 07:34:21;;;;;;;234.00;43.33;;;5.80;99.90;;;;;;4852422;29;20085;-91
2022/01/13 07:36:47;;;;;;;181.35;37.67;;;6.50;99.90;;;;;;4853570;29;20045;-88
2022/01/13 07:39:26;;;;;;;226.40;40.92;;;5.80;99.90;;;;;;4855468;29;20178;-92
2022/01/13 07:41:51;;;;;;;253.57;44.53;;;7.00;99.90;;;;;;4851623;29;20044;-92
2022/01/13 07:44:18;;;;;;;236.23;41.67;;;5.80;99.90;;;;;;4852449;29;20044;-93
2022/01/13 07:46:49;;;;;;;237.50;42.08;;;5.90;99.90;;;;;;4853261;29;20041;-96
2022/01/13 07:49:15;;;;;;;291.83;45.55;;;5.80;99.90;;;;;;4852275;29;20048;-87
2022/01/13 07:51:41;;;;;;;273.80;42.58;;;5.90;99.90;;;;;;4851321;29;20079;-89
2022/01/13 07:54:07;;;;;;;215.07;38.83;;;5.80;99.90;;;;;;4844859;29;20188;-88
2022/01/13 07:56:36;;;;;;;228.73;40.67;;;6.90;99.90;;;;;;4846893;29;20592;-91
2022/01/13 07:59:02;;;;;;;235.18;40.10;;;6.40;99.90;;;;;;4847053;29;20140;-91
2022/01/13 08:01:27;;;;;;;214.38;38.13;;;6.30;99.90;;;;;;4843187;29;20136;-89
2022/01/13 08:03:53;;;;;;;206.85;39.20;;;6.50;99.90;;;;;;4842816;29;20056;-90
2022/01/13 08:06:19;;;;;;;209.43;38.53;;;6.70;99.90;;;;;;4846611;29;20056;-89
2022/01/13 08:08:44;;;;;;;192.23;36.53;;;5.90;99.90;;;;;;4847837;29;20525;-93
2022/01/13 08:11:10;;;;;;;230.93;42.20;;;6.80;99.90;;;;;;4849292;29;20045;-92
2022/01/13 08:13:36;;;;;;;230.50;40.85;;;5.90;99.90;;;;;;4848861;29;20057;-92
2022/01/13 08:16:07;;;;;;;192.95;37.78;;;6.90;99.90;;;;;;4848969;29;20141;-93
2022/01/13 08:21:24;;;;;;;224.77;40.08;;;6.30;99.90;;;;;;4856953;29;20117;-93
2022/01/13 08:23:51;;;;;;;233.55;40.25;;;6.00;99.90;;;;;;4853355;29;20053;-94
2022/01/13 08:26:17;;;;;;;217.00;41.28;;;6.40;99.90;;;;;;4838873;29;20133;-93
2022/01/13 08:28:43;;;;;;;227.05;41.83;;;5.90;99.90;;;;;;4840845;29;20052;-94
2022/01/13 08:31:09;;;;;;;201.40;40.03;;;6.70;99.90;;;;;;4840138;29;20574;-94
2022/01/13 08:33:35;;;;;;;208.13;38.97;;;6.50;99.90;;;;;;4838825;29;20045;-93
2022/01/13 08:36:07;;;;;;;213.75;41.55;;;5.90;99.90;;;;;;4839362;29;20128;-94
2022/01/13 08:38:34;;;;;;;199.13;40.53;;;5.90;99.90;;;;;;4840510;29;20056;-93
2022/01/13 08:41:00;;;;;;;237.77;41.78;;;5.90;99.90;;;;;;4844249;29;20053;-94
2022/01/13 08:43:28;;;;;;;210.90;41.90;;;6.50;99.90;;;;;;4846716;29;20087;-87
2022/01/13 08:45:55;;;;;;;249.95;43.72;;;6.40;99.90;;;;;;4843699;29;20072;-88
2022/01/13 08:48:21;;;;;;;210.15;40.58;;;7.00;99.90;;;;;;4836622;29;20045;-87
2022/01/13 08:50:53;;;;;;;217.70;40.83;;;5.90;99.90;;;;;;4835611;29;20060;-89
2022/01/13 08:53:19;;;;;;;246.60;43.25;;;6.40;99.90;;;;;;4824964;29;20065;-88
2022/01/13 08:55:45;;;;;;;206.57;39.85;;;6.10;99.90;;;;;;4828507;29;20132;-95
2022/01/13 08:58:11;;;;;;;220.50;42.85;;;5.90;99.90;;;;;;4829202;29;20053;-94
2022/01/13 09:00:37;;;;;;;225.95;42.13;;;6.20;99.90;;;;;;4843620;29;20045;-95
2022/01/13 09:03:11;;;;;;;236.05;43.40;;;6.40;99.90;;;;;;4834778;29;20041;-93
2022/01/13 09:05:38;;;;;;;243.50;42.42;;;5.90;99.90;;;;;;4828203;29;20049;-91
2022/01/13 09:08:06;;;;;;;212.55;40.55;;;5.90;99.90;;;;;;4842391;29;20057;-92
2022/01/13 09:10:32;;;;;;;229.27;43.45;;;5.90;99.90;;;;;;4827215;29;20046;-92
2022/01/13 09:12:58;;;;;;;255.45;44.33;;;5.90;99.90;;;;;;4861262;29;20134;-93
2022/01/13 09:15:32;;;;;;;222.98;43.15;;;5.90;99.90;;;;;;4843767;29;20136;-91
2022/01/13 09:18:06;;;;;;;261.52;43.78;;;5.90;99.90;;;;;;4846157;29;20059;-92
2022/01/13 09:20:32;;;;;;;220.90;42.45;;;5.90;99.90;;;;;;4849269;29;20115;-90
2022/01/13 09:22:58;;;;;;;248.80;45.80;;;6.00;99.90;;;;;;4860032;29;20139;-92
2022/01/13 09:25:24;;;;;;;236.40;42.65;;;5.90;99.90;;;;;;4861964;29;20041;-92
2022/01/13 09:27:50;;;;;;;232.65;44.92;;;5.90;99.90;;;;;;4863681;29;20064;-92
2022/01/13 09:30:16;;;;;;;211.27;42.67;;;5.90;99.90;;;;;;4861193;29;20432;-90
2022/01/13 09:32:42;;;;;;;237.30;43.55;;;5.90;99.90;;;;;;4860856;29;20065;-92
2022/01/13 09:35:08;;;;;;;210.13;42.25;;;6.50;99.90;;;;;;4861898;29;20037;-93
2022/01/13 09:37:35;;;;;;;188.18;41.55;;;6.00;99.90;;;;;;4861661;29;20053;-93
2022/01/13 09:40:02;;;;;;;192.27;40.45;;;6.00;99.90;;;;;;4861897;29;20140;-93
2022/01/13 09:42:32;;;;;;;188.32;39.55;;;6.00;99.90;;;;;;4860207;29;20063;-91
2022/01/13 09:45:00;;;;;;;179.35;40.22;;;6.40;99.90;;;;;;4860224;29;20037;-91
2022/01/13 09:47:26;;;;;;;187.45;41.10;;;6.70;99.90;;;;;;4859975;29;20053;-94
2022/01/13 09:49:52;;;;;;;155.60;38.35;;;6.00;99.90;;;;;;4861410;29;20051;-92
2022/01/13 09:52:20;;;;;;;153.57;36.30;;;6.90;99.90;;;;;;4860153;29;20140;-92
2022/01/13 09:54:47;;;;;;;139.43;36.45;;;6.00;99.90;;;;;;4860579;29;20049;-91
2022/01/13 09:57:13;;;;;;;145.90;36.35;;;6.00;99.90;;;;;;4859400;29;20045;-92
2022/01/13 09:59:39;;;;;;;126.80;35.45;;;6.10;99.90;;;;;;4850187;29;20087;-91
2022/01/13 10:02:08;;;;;;;124.22;34.05;;;6.10;99.90;;;;;;4860255;29;20401;-90
2022/01/13 10:04:51;;;;;;;129.98;35.22;;;6.10;99.90;;;;;;4859267;29;20057;-91
2022/01/13 10:07:42;;;;;;;138.13;35.67;;;6.10;99.90;;;;;;4860494;29;20044;-90
2022/01/13 10:10:14;;;;;;;125.18;35.72;;;6.10;99.90;;;;;;4860722;29;20576;-91
2022/01/13 10:12:45;;;;;;;109.63;34.72;;;6.50;99.90;;;;;;4860843;29;20049;-92
2022/01/13 10:18:00;;;;;;;112.75;33.97;;;6.20;99.90;;;;;;4860344;29;20422;-91
2022/01/13 10:20:27;;;;;;;121.20;34.72;;;6.30;99.90;;;;;;4859288;29;20523;-91
2022/01/13 10:22:53;;;;;;;113.53;34.83;;;6.20;99.90;;;;;;4860166;29;20140;-90
2022/01/13 10:25:26;;;;;;;108.47;34.00;;;6.20;99.90;;;;;;4859655;29;20088;-91
2022/01/13 10:27:53;;;;;;;116.57;35.35;;;6.30;99.90;;;;;;4859635;29;20057;-92
2022/01/13 10:30:22;;;;;;;121.53;35.28;;;6.30;99.90;;;;;;4862703;29;20053;-96
2022/01/13 10:32:49;;;;;;;111.88;34.35;;;6.30;99.90;;;;;;4862189;29;20092;-96
2022/01/13 10:35:16;;;;;;;115.15;33.80;;;6.30;99.90;;;;;;4846176;29;20049;-88
2022/01/13 10:37:45;;;;;;;111.43;33.05;;;6.90;99.90;;;;;;4858657;29;20099;-90
2022/01/13 10:40:14;;;;;;;114.88;33.72;;;6.90;99.90;;;;;;4858466;29;20132;-90
2022/01/13 10:43:06;;;;;;;116.90;36.00;;;7.20;99.90;;;;;;4859534;29;20132;-89
2022/01/13 10:45:34;;;;;;;121.82;35.35;;;6.40;99.90;;;;;;4857310;29;20055;-89
2022/01/13 10:48:04;;;;;;;113.13;33.90;;;6.40;99.90;;;;;;4858472;29;20489;-91
2022/01/13 10:50:36;;;;;;;118.80;35.65;;;6.40;99.90;;;;;;4858570;29;20049;-89
2022/01/13 10:53:09;;;;;;;101.63;33.42;;;6.40;99.90;;;;;;4857220;29;20077;-88
2022/01/13 10:55:39;;;;;;;105.65;32.65;;;6.40;99.90;;;;;;4873325;29;20552;-90
2022/01/13 10:58:05;;;;;;;91.35;32.97;;;6.40;99.90;;;;;;4859564;29;20049;-91
2022/01/13 11:00:33;;;;;;;95.53;33.20;;;6.30;99.90;;;;;;4875676;29;20101;-94
2022/01/13 11:03:03;;;;;;;110.78;34.13;;;6.40;99.90;;;;;;4877149;29;20051;-90
2022/01/13 11:05:31;;;;;;;97.22;34.78;;;6.40;99.90;;;;;;4860397;29;20049;-90
2022/01/13 11:07:57;;;;;;;91.05;31.42;;;6.40;99.90;;;;;;4846892;29;20084;-95
2022/01/13 11:10:24;;;;;;;94.53;33.17;;;6.40;99.90;;;;;;4859990;29;20257;-94
2022/01/13 11:12:57;;;;;;;99.80;34.25;;;6.40;99.90;;;;;;4860387;29;20049;-92
2022/01/13 11:15:24;;;;;;;105.28;36.13;;;6.40;99.90;;;;;;4874551;29;20523;-92
2022/01/13 11:17:53;;;;;;;101.55;34.53;;;6.40;99.90;;;;;;4846038;29;20139;-92
2022/01/13 11:20:20;;;;;;;104.05;36.28;;;6.50;99.90;;;;;;4878267;29;20497;-94
2022/01/13 11:22:48;;;;;;;105.80;37.25;;;6.40;99.90;;;;;;4878461;29;20083;-93
2022/01/13 11:25:19;;;;;;;89.63;33.92;;;6.80;99.90;;;;;;4862642;29;20524;-88
2022/01/13 11:27:46;;;;;;;101.60;35.45;;;6.40;99.90;;;;;;4861450;29;20430;-86
2022/01/13 11:30:15;;;;;;;87.88;35.28;;;7.10;99.90;;;;;;4861769;29;20079;-92
2022/01/13 11:32:42;;;;;;;90.45;34.95;;;6.40;99.90;;;;;;4861895;29;20044;-93
2022/01/13 11:35:15;;;;;;;91.03;33.70;;;6.50;99.90;;;;;;4863547;29;20135;-91
2022/01/13 11:37:42;;;;;;;83.68;32.92;;;6.50;99.90;;;;;;4861706;29;20048;-88
2022/01/13 11:40:27;;;;;;;98.35;34.75;;;6.00;99.90;;;;;;4867224;29;20115;-93
2022/01/13 11:42:55;;;;;;;87.38;31.23;;;6.90;99.90;;;;;;4866476;29;20052;-92
2022/01/13 11:45:22;;;;;;;75.90;29.08;;;6.60;99.90;;;;;;4865963;29;20569;-92
2022/01/13 11:47:51;;;;;;;76.78;31.45;;;6.60;99.90;;;;;;4866340;29;20048;-92
2022/01/13 11:50:23;;;;;;;74.18;31.13;;;6.60;99.90;;;;;;4864801;29;20059;-91
2022/01/13 11:52:52;;;;;;;86.75;34.15;;;6.60;99.90;;;;;;4865526;29;20381;-93
2022/01/13 11:55:33;;;;;;;64.85;28.08;;;7.40;99.90;;;;;;4866802;29;20041;-94
2022/01/13 11:58:15;;;;;;;81.28;31.17;;;6.60;99.90;;;;;;4865108;29;20056;-93
2022/01/13 12:00:47;;;;;;;88.43;31.35;;;6.80;99.90;;;;;;4864377;29;20476;-93
2022/01/13 12:03:32;;;;;;;74.28;31.55;;;6.60;99.90;;;;;;4862070;29;20064;-92
2022/01/13 12:06:00;;;;;;;76.03;31.27;;;6.60;99.90;;;;;;4861778;29;20060;-94
2022/01/13 12:08:44;;;;;;;88.28;33.60;;;6.60;99.90;;;;;;4864830;29;20048;-93
2022/01/13 12:11:34;;;;;;;85.28;32.65;;;6.60;99.90;;;;;;4867259;29;20523;-93
2022/01/13 12:13:59;;;;;;;77.72;31.27;;;6.60;99.90;;;;;;4865231;29;20496;-94
2022/01/13 12:16:52;;;;;;;77.90;32.97;;;6.60;99.90;;;;;;4865124;29;20500;-94
2022/01/13 12:19:29;;;;;;;81.47;31.55;;;6.60;99.90;;;;;;4866985;29;20083;-93
2022/01/13 12:22:05;;;;;;;73.47;30.83;;;6.60;99.90;;;;;;4865171;29;20052;-93
2022/01/13 12:24:50;;;;;;;70.22;32.25;;;7.40;99.90;;;;;;4864554;29;20485;-92
2022/01/13 12:27:19;;;;;;;67.60;30.95;;;6.60;99.90;;;;;;4867123;29;20044;-92
2022/01/13 12:29:49;;;;;;;88.72;32.58;;;7.30;99.90;;;;;;4865674;29;20091;-92
2022/01/13 12:32:18;;;;;;;66.10;30.55;;;6.70;99.90;;;;;;4865137;29;20496;-93
2022/01/13 12:34:47;;;;;;;68.30;31.02;;;6.70;99.90;;;;;;4865234;29;20432;-95
2022/01/13 12:37:12;;;;;;;62.85;32.25;;;7.00;99.90;;;;;;4865432;29;20059;-95
2022/01/13 12:39:43;;;;;;;60.13;30.30;;;6.80;99.90;;;;;;4865109;29;20048;-94
2022/01/13 12:42:16;;;;;;;59.92;27.95;;;6.70;99.90;;;;;;4865733;29;20124;-94
2022/01/13 12:47:27;;;;;;;56.83;27.40;;;6.80;99.90;;;;;;4881328;29;20124;-93
2022/01/13 12:49:53;;;;;;;61.35;26.23;;;7.40;99.90;;;;;;4864110;29;20052;-93
2022/01/13 12:52:21;;;;;;;69.03;26.40;;;6.90;99.90;;;;;;4864757;29;20094;-93
2022/01/13 12:54:47;;;;;;;51.35;27.52;;;6.90;99.90;;;;;;4872274;29;20092;-94
2022/01/13 12:57:15;;;;;;;57.85;26.08;;;7.00;99.90;;;;;;4866043;29;20152;-94
2022/01/13 12:59:40;;;;;;;56.97;27.45;;;7.30;99.90;;;;;;4864458;29;20179;-95
2022/01/13 13:02:08;;;;;;;55.97;26.77;;;7.10;99.90;;;;;;4864870;29;20091;-94
2022/01/13 13:04:35;;;;;;;57.13;26.00;;;7.10;99.90;;;;;;4866203;29;20096;-95
2022/01/13 13:07:01;;;;;;;50.08;27.35;;;7.10;99.90;;;;;;4866467;29;20576;-93
2022/01/13 13:09:28;;;;;;;51.85;24.58;;;7.20;99.90;;;;;;4865831;29;20060;-92
2022/01/13 13:11:58;;;;;;;47.83;25.73;;;7.20;99.90;;;;;;4865377;29;20501;-94